sensor_id;sensor_type;location;lat;lon;timestamp;P1;durP1;ratioP1;P2;durP2;ratioP2
22359;SDS011;11347;52.030;4.690;2023-05-13T12:37:13;6.50;;;2.50;;
22359;SDS011;11347;52.030;4.690;2023-05-13T12:39:39;4.60;;;2.60;;
22359;SDS011;11347;52.030;4.690;2023-05-13T12:42:05;4.78;;;3.00;;
22359;SDS011;11347;52.030;4.690;2023-05-13T12:44:31;4.47;;;2.60;;
22359;SDS011;11347;52.030;4.690;2023-05-13T12:46:56;5.33;;;2.43;;
22359;SDS011;11347;52.030;4.690;2023-05-13T12:49:22;6.88;;;2.60;;
22359;SDS011;11347;52.030;4.690;2023-05-13T12:51:47;4.73;;;2.47;;
22359;SDS011;11347;52.030;4.690;2023-05-13T12:54:13;5.78;;;3.08;;
22359;SDS011;11347;52.030;4.690;2023-05-13T12:56:39;3.97;;;2.58;;
22359;SDS011;11347;52.030;4.690;2023-05-13T12:59:04;6.63;;;2.73;;
22359;SDS011;11347;52.030;4.690;2023-05-13T13:01:29;6.07;;;2.40;;
22359;SDS011;11347;52.030;4.690;2023-05-13T13:03:54;4.33;;;2.40;;
22359;SDS011;11347;52.030;4.690;2023-05-13T13:06:20;5.63;;;2.60;;
22359;SDS011;11347;52.030;4.690;2023-05-13T13:08:45;7.30;;;2.80;;
22359;SDS011;11347;52.030;4.690;2023-05-13T13:11:11;5.37;;;2.60;;
22359;SDS011;11347;52.030;4.690;2023-05-13T13:13:42;4.82;;;2.80;;
22359;SDS011;11347;52.030;4.690;2023-05-13T13:16:07;5.10;;;2.40;;
22359;SDS011;11347;52.030;4.690;2023-05-13T13:18:33;6.63;;;2.40;;
22359;SDS011;11347;52.030;4.690;2023-05-13T13:20:58;6.43;;;2.80;;
22359;SDS011;11347;52.030;4.690;2023-05-13T13:23:23;5.23;;;2.60;;
22359;SDS011;11347;52.030;4.690;2023-05-13T13:25:48;5.57;;;2.73;;
22359;SDS011;11347;52.030;4.690;2023-05-13T13:28:13;4.87;;;2.67;;
22359;SDS011;11347;52.030;4.690;2023-05-13T13:30:39;7.00;;;2.50;;
22359;SDS011;11347;52.030;4.690;2023-05-13T13:33:10;6.18;;;2.58;;
22359;SDS011;11347;52.030;4.690;2023-05-13T13:35:35;4.77;;;2.73;;
22359;SDS011;11347;52.030;4.690;2023-05-13T13:38:00;3.30;;;2.17;;
22359;SDS011;11347;52.030;4.690;2023-05-13T13:40:25;6.10;;;2.60;;
22359;SDS011;11347;52.030;4.690;2023-05-13T13:42:50;5.37;;;2.50;;
22359;SDS011;11347;52.030;4.690;2023-05-13T13:45:15;5.17;;;2.50;;
22359;SDS011;11347;52.030;4.690;2023-05-13T13:47:41;4.30;;;2.40;;
22359;SDS011;11347;52.030;4.690;2023-05-13T13:50:06;5.30;;;2.90;;
22359;SDS011;11347;52.030;4.690;2023-05-13T13:52:31;5.40;;;3.10;;
22359;SDS011;11347;52.030;4.690;2023-05-13T13:54:56;5.70;;;3.17;;
22359;SDS011;11347;52.030;4.690;2023-05-13T13:57:22;8.23;;;3.63;;
22359;SDS011;11347;52.030;4.690;2023-05-13T13:59:48;7.00;;;3.20;;
22359;SDS011;11347;52.030;4.690;2023-05-13T14:02:13;6.67;;;3.40;;
22359;SDS011;11347;52.030;4.690;2023-05-13T14:04:38;7.17;;;3.40;;
22359;SDS011;11347;52.030;4.690;2023-05-13T14:07:04;6.67;;;3.20;;
22359;SDS011;11347;52.030;4.690;2023-05-13T14:09:29;8.18;;;3.95;;
22359;SDS011;11347;52.030;4.690;2023-05-13T14:48:55;8.63;;;4.10;;
22359;SDS011;11347;52.030;4.690;2023-05-13T14:51:20;9.43;;;3.93;;
22359;SDS011;11347;52.030;4.690;2023-05-13T14:53:45;13.50;;;4.33;;
22359;SDS011;11347;52.030;4.690;2023-05-13T14:56:10;6.57;;;3.90;;
22359;SDS011;11347;52.030;4.690;2023-05-13T14:58:36;8.23;;;3.90;;
22359;SDS011;11347;52.030;4.690;2023-05-13T15:01:01;9.87;;;4.23;;
22359;SDS011;11347;52.030;4.690;2023-05-13T15:03:26;9.07;;;3.83;;
22359;SDS011;11347;52.030;4.690;2023-05-13T15:05:51;9.73;;;4.50;;
22359;SDS011;11347;52.030;4.690;2023-05-13T15:08:18;9.17;;;4.03;;
22359;SDS011;11347;52.030;4.690;2023-05-13T15:10:43;5.87;;;3.27;;
22359;SDS011;11347;52.030;4.690;2023-05-13T15:13:08;9.87;;;4.27;;
22359;SDS011;11347;52.030;4.690;2023-05-13T15:15:34;6.93;;;3.58;;
22359;SDS011;11347;52.030;4.690;2023-05-13T15:17:59;9.32;;;4.00;;
22359;SDS011;11347;52.030;4.690;2023-05-13T15:38:29;7.63;;;3.70;;
22359;SDS011;11347;52.030;4.690;2023-05-13T15:40:55;9.13;;;3.23;;
22359;SDS011;11347;52.030;4.690;2023-05-13T15:43:20;6.93;;;3.33;;
22359;SDS011;11347;52.030;4.690;2023-05-13T15:45:45;8.17;;;3.70;;
22359;SDS011;11347;52.030;4.690;2023-05-13T15:48:10;7.23;;;3.13;;
22359;SDS011;11347;52.030;4.690;2023-05-13T15:50:36;6.25;;;3.38;;
22359;SDS011;11347;52.030;4.690;2023-05-13T15:53:01;7.65;;;3.40;;
22359;SDS011;11347;52.030;4.690;2023-05-13T15:55:26;6.73;;;3.00;;
22359;SDS011;11347;52.030;4.690;2023-05-13T15:57:51;7.00;;;3.00;;
22359;SDS011;11347;52.030;4.690;2023-05-13T16:00:17;7.43;;;2.90;;
22359;SDS011;11347;52.030;4.690;2023-05-13T16:02:42;6.00;;;3.00;;
22359;SDS011;11347;52.030;4.690;2023-05-13T16:05:08;7.78;;;2.90;;
22359;SDS011;11347;52.030;4.690;2023-05-13T16:07:33;9.13;;;3.30;;
22359;SDS011;11347;52.030;4.690;2023-05-13T16:09:58;9.37;;;2.90;;
22359;SDS011;11347;52.030;4.690;2023-05-13T16:12:24;5.37;;;2.63;;
22359;SDS011;11347;52.030;4.690;2023-05-13T16:14:49;6.70;;;3.10;;
22359;SDS011;11347;52.030;4.690;2023-05-13T16:17:14;6.37;;;3.20;;
22359;SDS011;11347;52.030;4.690;2023-05-13T16:19:40;8.53;;;3.40;;
22359;SDS011;11347;52.030;4.690;2023-05-13T16:24:49;7.33;;;3.40;;
22359;SDS011;11347;52.030;4.690;2023-05-13T16:27:14;8.73;;;3.60;;
22359;SDS011;11347;52.030;4.690;2023-05-13T16:29:39;4.93;;;3.20;;
22359;SDS011;11347;52.030;4.690;2023-05-13T16:32:05;6.43;;;3.15;;
22359;SDS011;11347;52.030;4.690;2023-05-13T16:34:30;6.28;;;3.40;;
22359;SDS011;11347;52.030;4.690;2023-05-13T16:36:55;8.47;;;3.20;;
22359;SDS011;11347;52.030;4.690;2023-05-13T16:39:20;7.77;;;2.80;;
22359;SDS011;11347;52.030;4.690;2023-05-13T16:41:46;8.60;;;3.00;;
22359;SDS011;11347;52.030;4.690;2023-05-13T16:44:11;7.73;;;3.20;;
22359;SDS011;11347;52.030;4.690;2023-05-13T16:46:36;7.50;;;3.43;;
22359;SDS011;11347;52.030;4.690;2023-05-13T16:49:01;8.23;;;3.80;;
22359;SDS011;11347;52.030;4.690;2023-05-13T16:51:27;12.83;;;5.60;;
22359;SDS011;11347;52.030;4.690;2023-05-13T16:53:52;12.27;;;5.63;;
22359;SDS011;11347;52.030;4.690;2023-05-13T16:56:17;11.83;;;4.97;;
22359;SDS011;11347;52.030;4.690;2023-05-13T16:58:42;6.10;;;3.60;;
22359;SDS011;11347;52.030;4.690;2023-05-13T17:01:07;7.97;;;3.60;;
22359;SDS011;11347;52.030;4.690;2023-05-13T17:03:32;7.17;;;3.50;;
22359;SDS011;11347;52.030;4.690;2023-05-13T17:05:57;5.40;;;3.30;;
22359;SDS011;11347;52.030;4.690;2023-05-13T17:08:23;7.43;;;3.20;;
22359;SDS011;11347;52.030;4.690;2023-05-13T17:10:48;8.93;;;3.20;;
22359;SDS011;11347;52.030;4.690;2023-05-13T17:13:13;8.03;;;3.67;;
22359;SDS011;11347;52.030;4.690;2023-05-13T17:15:38;6.60;;;3.37;;
22359;SDS011;11347;52.030;4.690;2023-05-13T17:18:04;8.63;;;3.43;;
22359;SDS011;11347;52.030;4.690;2023-05-13T17:20:29;9.00;;;3.50;;
22359;SDS011;11347;52.030;4.690;2023-05-13T17:22:54;7.63;;;3.60;;
22359;SDS011;11347;52.030;4.690;2023-05-13T17:25:25;8.07;;;3.60;;
22359;SDS011;11347;52.030;4.690;2023-05-13T17:27:51;7.10;;;3.50;;
22359;SDS011;11347;52.030;4.690;2023-05-13T17:30:16;7.70;;;3.47;;
22359;SDS011;11347;52.030;4.690;2023-05-13T17:32:41;12.43;;;5.33;;
22359;SDS011;11347;52.030;4.690;2023-05-13T17:35:06;14.77;;;6.03;;
22359;SDS011;11347;52.030;4.690;2023-05-13T17:37:31;14.80;;;5.50;;
22359;SDS011;11347;52.030;4.690;2023-05-13T17:39:57;16.23;;;6.40;;
22359;SDS011;11347;52.030;4.690;2023-05-13T17:42:24;15.57;;;6.13;;
22359;SDS011;11347;52.030;4.690;2023-05-13T17:44:49;14.23;;;6.00;;
22359;SDS011;11347;52.030;4.690;2023-05-13T17:47:15;15.07;;;6.03;;
22359;SDS011;11347;52.030;4.690;2023-05-13T17:49:40;16.92;;;6.18;;
22359;SDS011;11347;52.030;4.690;2023-05-13T17:52:05;18.85;;;6.45;;
22359;SDS011;11347;52.030;4.690;2023-05-13T17:54:31;14.53;;;6.07;;
22359;SDS011;11347;52.030;4.690;2023-05-13T17:56:56;19.67;;;6.70;;
22359;SDS011;11347;52.030;4.690;2023-05-13T17:59:21;15.50;;;6.13;;
22359;SDS011;11347;52.030;4.690;2023-05-13T18:01:46;16.07;;;6.40;;
22359;SDS011;11347;52.030;4.690;2023-05-13T18:04:11;17.47;;;7.03;;
22359;SDS011;11347;52.030;4.690;2023-05-13T18:06:36;12.27;;;6.33;;
22359;SDS011;11347;52.030;4.690;2023-05-13T18:09:02;14.60;;;6.20;;
22359;SDS011;11347;52.030;4.690;2023-05-13T18:11:27;14.63;;;6.33;;
22359;SDS011;11347;52.030;4.690;2023-05-13T18:13:52;19.80;;;6.93;;
22359;SDS011;11347;52.030;4.690;2023-05-13T18:16:17;13.70;;;7.00;;
22359;SDS011;11347;52.030;4.690;2023-05-13T18:18:42;13.27;;;6.80;;
22359;SDS011;11347;52.030;4.690;2023-05-13T18:21:07;17.20;;;7.20;;
22359;SDS011;11347;52.030;4.690;2023-05-13T18:23:34;15.35;;;7.60;;
22359;SDS011;11347;52.030;4.690;2023-05-13T18:25:59;13.37;;;7.97;;
22359;SDS011;11347;52.030;4.690;2023-05-13T18:28:24;14.73;;;7.47;;
22359;SDS011;11347;52.030;4.690;2023-05-13T18:30:50;13.70;;;7.50;;
22359;SDS011;11347;52.030;4.690;2023-05-13T19:46:05;14.02;;;7.78;;
22359;SDS011;11347;52.030;4.690;2023-05-13T19:49:00;13.82;;;8.00;;
